Time;durP1;ratioP1;P1;durP2;ratioP2;P2;SDS_P1;SDS_P2;PMS_P1;PMS_P2;Temp;Humidity;BMP_temperature;BMP_pressure;BME280_temperature;BME280_humidity;BME280_pressure;Samples;Min_cycle;Max_cycle;Signal;HPM_P1;HPM_P2
2021/01/02 00:05:06;;;;;;;13.82;6.35;;;4.70;69.20;;;;;;2192774;57;20983;-82
2021/01/02 00:08:00;;;;;;;15.25;6.50;;;4.70;68.70;;;;;;2407398;57;21517;-80
2021/01/02 00:11:15;;;;;;;12.80;6.03;;;4.60;68.60;;;;;;2196999;56;20989;-81
2021/01/02 00:14:16;;;;;;;10.98;5.28;;;4.60;68.40;;;;;;2407077;56;20964;-82
2021/01/02 00:18:31;;;;;;;14.27;5.35;;;4.60;68.50;;;;;;2192933;57;20984;-83
2021/01/02 00:22:33;;;;;;;13.10;6.18;;;4.50;68.50;;;;;;2407721;56;20976;-82
2021/01/02 00:25:03;;;;;;;10.52;4.70;;;4.50;68.50;;;;;;2406033;56;21025;-81
2021/01/02 00:28:31;;;;;;;14.80;6.10;;;4.40;68.40;;;;;;2407350;56;21383;-82
2021/01/02 00:31:15;;;;;;;9.88;4.55;;;4.40;68.40;;;;;;2193843;56;20964;-83
2021/01/02 00:35:38;;;;;;;13.68;5.55;;;4.30;68.30;;;;;;2407317;55;20980;-82
2021/01/02 00:38:05;;;;;;;12.23;5.43;;;4.30;68.40;;;;;;2197764;56;21028;-81
2021/01/02 00:40:40;;;;;;;11.52;5.22;;;4.20;68.50;;;;;;2408169;57;20953;-83
2021/01/02 00:43:06;;;;;;;11.23;4.97;;;4.20;68.60;;;;;;2193136;56;21041;-81
2021/01/02 00:45:33;;;;;;;12.37;5.60;;;4.20;68.70;;;;;;2201624;56;21834;-82
2021/01/02 00:48:11;;;;;;;13.68;5.82;;;4.20;68.70;;;;;;2402818;56;21045;-81
2021/01/02 00:50:38;;;;;;;10.32;4.35;;;4.20;68.90;;;;;;2402764;56;21818;-81
2021/01/02 00:53:23;;;;;;;10.15;4.78;;;4.10;68.80;;;;;;2192804;56;20948;-81
2021/01/02 00:56:04;;;;;;;8.82;3.92;;;4.10;68.90;;;;;;2193714;55;20937;-83
2021/01/02 01:00:05;;;;;;;8.07;3.40;;;4.10;68.90;;;;;;2407662;56;21079;-83
2021/01/02 01:03:24;;;;;;;8.57;3.90;;;4.10;68.50;;;;;;2408015;56;20968;-81
2021/01/02 01:05:50;;;;;;;7.40;3.12;;;4.10;68.70;;;;;;2407628;55;20975;-83
2021/01/02 01:08:17;;;;;;;8.50;3.70;;;4.10;69.00;;;;;;2404942;55;21003;-83
2021/01/02 01:10:43;;;;;;;7.87;4.18;;;4.10;69.20;;;;;;2201128;56;21065;-81
2021/01/02 01:13:20;;;;;;;11.18;5.12;;;4.10;69.30;;;;;;2398259;56;21740;-82
2021/01/02 01:15:46;;;;;;;10.90;4.93;;;4.00;69.40;;;;;;2395677;56;21013;-81
2021/01/02 01:18:34;;;;;;;9.93;4.72;;;4.10;69.60;;;;;;2401503;56;21017;-83
2021/01/02 01:21:01;;;;;;;10.63;4.93;;;4.10;69.60;;;;;;2409572;56;21507;-83
2021/01/02 01:23:49;;;;;;;10.98;5.30;;;4.10;69.70;;;;;;2383597;57;21930;-81
2021/01/02 01:26:36;;;;;;;10.48;4.85;;;3.80;69.60;;;;;;2395719;56;20992;-83
2021/01/02 01:29:02;;;;;;;11.45;5.95;;;4.10;69.80;;;;;;2382853;57;20953;-83
2021/01/02 01:31:30;;;;;;;12.37;5.32;;;4.10;69.90;;;;;;2410065;56;21841;-82
2021/01/02 01:33:59;;;;;;;12.57;5.20;;;4.10;70.00;;;;;;2397337;56;21926;-83
2021/01/02 01:36:33;;;;;;;10.13;4.68;;;4.10;70.00;;;;;;2195329;57;21034;-81
2021/01/02 01:38:59;;;;;;;10.73;5.10;;;4.10;70.10;;;;;;2196458;56;21040;-82
2021/01/02 01:41:36;;;;;;;11.52;5.62;;;4.10;70.10;;;;;;2193626;56;20996;-81
2021/01/02 01:45:03;;;;;;;11.82;5.15;;;4.20;70.20;;;;;;2176617;58;21463;-81
2021/01/02 01:47:41;;;;;;;7.82;3.87;;;4.20;70.10;;;;;;2408373;56;21093;-81
2021/01/02 01:50:27;;;;;;;11.90;4.55;;;4.20;70.20;;;;;;2189739;57;21052;-83
2021/01/02 01:54:37;;;;;;;7.65;3.75;;;4.20;70.20;;;;;;2404765;56;21093;-82
2021/01/02 01:57:04;;;;;;;9.80;3.92;;;4.30;70.00;;;;;;2199236;56;21814;-82
2021/01/02 02:06:28;;;;;;;10.98;4.93;;;4.30;70.40;;;;;;2403538;56;20974;-82
2021/01/02 02:08:59;;;;;;;11.07;4.15;;;4.40;69.90;;;;;;2407860;57;20944;-82
2021/01/02 02:14:00;;;;;;;8.02;3.87;;;4.40;70.30;;;;;;2408013;55;21069;-81
2021/01/02 02:16:35;;;;;;;6.65;3.22;;;4.40;69.90;;;;;;2405005;56;21001;-81
2021/01/02 02:19:01;;;;;;;9.68;4.43;;;4.40;70.30;;;;;;2181978;57;21036;-82
2021/01/02 02:21:28;;;;;;;9.52;4.18;;;4.40;70.30;;;;;;2407890;56;21076;-81
2021/01/02 02:24:01;;;;;;;11.18;4.10;;;4.40;70.30;;;;;;2196659;56;20960;-82
2021/01/02 02:26:32;;;;;;;8.60;4.05;;;4.40;70.30;;;;;;2382242;56;21003;-81
2021/01/02 02:29:22;;;;;;;7.22;3.47;;;4.40;70.30;;;;;;2409087;56;21270;-82
2021/01/02 02:31:49;;;;;;;9.57;3.87;;;4.40;70.30;;;;;;2408505;57;20978;-80
2021/01/02 02:34:15;;;;;;;9.40;4.10;;;4.50;70.40;;;;;;2407436;57;21062;-81
2021/01/02 02:36:42;;;;;;;9.57;4.05;;;4.50;70.50;;;;;;2406604;57;21761;-81
2021/01/02 02:39:12;;;;;;;7.03;3.30;;;4.50;70.60;;;;;;2407382;57;20972;-83
2021/01/02 02:41:49;;;;;;;10.05;3.78;;;4.50;70.60;;;;;;2408220;56;20969;-81
2021/01/02 02:44:16;;;;;;;8.40;3.67;;;4.50;70.60;;;;;;2408484;56;21001;-80
2021/01/02 02:46:44;;;;;;;9.90;4.35;;;4.60;70.70;;;;;;2383420;57;20980;-82
2021/01/02 02:49:12;;;;;;;10.48;4.30;;;4.60;70.70;;;;;;2408116;56;21421;-80
2021/01/02 02:52:35;;;;;;;9.63;4.40;;;4.60;71.30;;;;;;2407524;56;21021;-82
2021/01/02 02:55:02;;;;;;;12.13;4.78;;;4.60;70.50;;;;;;2387967;56;20995;-83
2021/01/02 02:57:30;;;;;;;11.07;4.95;;;4.60;70.40;;;;;;2403975;57;21358;-82
2021/01/02 02:59:57;;;;;;;12.65;5.78;;;4.60;70.50;;;;;;2408056;56;20965;-81
2021/01/02 03:02:23;;;;;;;11.65;6.00;;;4.60;70.40;;;;;;2193148;57;21527;-81
2021/01/02 03:04:49;;;;;;;12.50;6.00;;;4.70;70.50;;;;;;2408510;56;21025;-84
2021/01/02 03:07:15;;;;;;;13.43;5.82;;;4.70;70.50;;;;;;2407034;57;20952;-83
2021/01/02 03:09:42;;;;;;;9.93;5.00;;;4.70;70.50;;;;;;2407569;56;21020;-82
2021/01/02 03:12:08;;;;;;;10.90;4.55;;;4.70;70.40;;;;;;2198169;56;20985;-81
2021/01/02 03:14:34;;;;;;;9.57;4.57;;;4.70;70.20;;;;;;2406493;57;21041;-82
2021/01/02 03:17:00;;;;;;;7.60;3.58;;;4.70;70.10;;;;;;2192929;56;20956;-81
2021/01/02 03:19:30;;;;;;;6.55;2.80;;;4.70;70.10;;;;;;2408352;57;20936;-81
2021/01/02 03:21:57;;;;;;;7.05;3.30;;;4.70;70.00;;;;;;2407576;56;21021;-81
2021/01/02 03:24:24;;;;;;;9.25;4.22;;;4.70;70.00;;;;;;2406705;57;21087;-82
2021/01/02 03:26:50;;;;;;;6.65;3.20;;;4.70;70.60;;;;;;2198087;56;21001;-82
2021/01/02 03:29:17;;;;;;;7.28;3.58;;;4.70;69.80;;;;;;2406013;56;20937;-81
2021/01/02 03:31:43;;;;;;;7.50;3.42;;;4.70;69.70;;;;;;2407911;56;21033;-82
2021/01/02 03:34:09;;;;;;;6.03;2.83;;;4.60;69.60;;;;;;2182704;57;21020;-81
2021/01/02 03:36:36;;;;;;;8.35;3.97;;;4.60;69.50;;;;;;2407152;57;20941;-80
2021/01/02 03:39:03;;;;;;;8.23;3.50;;;4.60;69.50;;;;;;2407516;57;21036;-82
2021/01/02 03:41:29;;;;;;;9.60;3.70;;;4.60;69.50;;;;;;2407906;57;20988;-82
2021/01/02 03:43:56;;;;;;;10.07;4.22;;;4.60;69.40;;;;;;2407989;56;20973;-82
2021/01/02 03:46:26;;;;;;;11.43;4.87;;;4.60;69.40;;;;;;2407128;56;21032;-82
2021/01/02 03:48:52;;;;;;;12.00;4.75;;;4.60;69.40;;;;;;2175059;57;20949;-82
2021/01/02 03:51:23;;;;;;;12.55;4.78;;;4.50;69.40;;;;;;2408046;56;20968;-82
2021/01/02 03:53:49;;;;;;;14.98;5.37;;;4.50;69.40;;;;;;2193335;57;20976;-80
2021/01/02 03:56:15;;;;;;;16.17;5.50;;;4.50;69.50;;;;;;2407123;55;21093;-83
2021/01/02 03:58:41;;;;;;;15.88;5.18;;;4.50;69.50;;;;;;2408180;56;21032;-83
2021/01/02 04:01:08;;;;;;;9.57;4.00;;;4.50;69.60;;;;;;2193913;57;20972;-82
2021/01/02 04:03:34;;;;;;;13.93;5.82;;;4.50;69.50;;;;;;2193562;56;21036;-82
2021/01/02 04:06:00;;;;;;;9.18;4.53;;;4.50;69.50;;;;;;2407408;56;21678;-82
2021/01/02 04:08:26;;;;;;;11.15;4.50;;;4.50;69.60;;;;;;2407417;56;21017;-81
2021/01/02 04:10:53;;;;;;;10.70;4.80;;;4.40;69.60;;;;;;2404522;56;21859;-84
2021/01/02 04:13:19;;;;;;;7.70;3.55;;;4.40;69.50;;;;;;2187440;56;20978;-81
2021/01/02 04:15:45;;;;;;;11.48;4.85;;;4.40;69.60;;;;;;2407567;57;21033;-82
2021/01/02 04:18:12;;;;;;;10.73;5.10;;;4.40;69.60;;;;;;2406540;56;21009;-83
2021/01/02 04:20:38;;;;;;;10.68;4.80;;;4.20;69.50;;;;;;2392970;56;20989;-82
2021/01/02 04:23:05;;;;;;;12.05;5.03;;;4.40;69.70;;;;;;2406816;57;21001;-83
2021/01/02 04:25:31;;;;;;;8.90;4.00;;;4.40;69.80;;;;;;2407438;56;20957;-81
2021/01/02 04:27:58;;;;;;;11.15;4.70;;;4.40;70.00;;;;;;2197057;56;21017;-81
2021/01/02 04:30:24;;;;;;;7.97;3.75;;;4.40;70.10;;;;;;2408116;56;21472;-80
2021/01/02 04:32:51;;;;;;;10.27;4.22;;;4.40;70.10;;;;;;2408112;57;20961;-80
2021/01/02 04:35:17;;;;;;;7.18;3.22;;;4.50;70.30;;;;;;2408033;57;20940;-81
2021/01/02 04:37:43;;;;;;;7.82;3.50;;;4.50;70.30;;;;;;2196138;56;21069;-83
2021/01/02 04:40:11;;;;;;;7.72;3.80;;;4.50;70.10;;;;;;2193273;56;20944;-82
2021/01/02 04:42:41;;;;;;;7.15;3.50;;;4.50;70.00;;;;;;2407904;56;20961;-83
2021/01/02 04:45:08;;;;;;;6.87;3.30;;;4.50;70.00;;;;;;2407766;57;21012;-81
2021/01/02 04:47:35;;;;;;;8.68;3.62;;;4.50;69.90;;;;;;2407788;56;21725;-83
2021/01/02 04:50:03;;;;;;;7.53;3.50;;;4.50;69.80;;;;;;2408390;57;20940;-81
2021/01/02 04:52:29;;;;;;;7.62;3.47;;;4.50;69.80;;;;;;2408120;57;20981;-80
2021/01/02 04:54:55;;;;;;;8.50;4.18;;;4.40;69.70;;;;;;2407504;56;20943;-82
2021/01/02 04:57:22;;;;;;;7.85;3.97;;;4.40;69.70;;;;;;2408001;55;20980;-83
2021/01/02 04:59:51;;;;;;;8.70;3.78;;;4.40;69.70;;;;;;2196707;56;21050;-82
2021/01/02 05:02:19;;;;;;;8.25;3.40;;;4.40;69.70;;;;;;2408229;56;20992;-83
2021/01/02 05:04:46;;;;;;;8.43;3.92;;;4.40;69.70;;;;;;2407737;57;20999;-80
2021/01/02 05:07:25;;;;;;;8.27;3.28;;;4.40;69.80;;;;;;2193375;57;20984;-83
2021/01/02 05:09:51;;;;;;;7.30;3.35;;;4.40;69.90;;;;;;2197112;56;20975;-81
2021/01/02 05:12:36;;;;;;;6.05;3.10;;;4.40;70.10;;;;;;2408358;57;21849;-80
2021/01/02 05:15:12;;;;;;;7.43;3.45;;;4.40;70.00;;;;;;2368133;57;21108;-81
2021/01/02 05:17:39;;;;;;;8.07;3.70;;;4.40;70.10;;;;;;2403097;56;21024;-81
2021/01/02 05:20:07;;;;;;;6.93;3.12;;;4.40;70.30;;;;;;2198436;56;20962;-81
2021/01/02 05:22:34;;;;;;;9.15;4.22;;;4.50;70.40;;;;;;2193591;56;20988;-82
2021/01/02 05:25:22;;;;;;;8.73;4.18;;;4.50;70.50;;;;;;2407261;56;20990;-83
2021/01/02 05:27:51;;;;;;;8.73;4.57;;;4.50;70.50;;;;;;2402601;56;20976;-81
2021/01/02 05:30:26;;;;;;;8.48;4.00;;;4.50;70.50;;;;;;2408663;56;20976;-84
2021/01/02 05:34:02;;;;;;;8.23;4.18;;;4.50;70.60;;;;;;2193497;56;20980;-84
2021/01/02 05:36:28;;;;;;;6.03;3.20;;;4.50;70.30;;;;;;2407738;56;20949;-83
2021/01/02 05:38:54;;;;;;;10.93;4.35;;;4.60;70.60;;;;;;2194034;56;21297;-82
2021/01/02 05:41:21;;;;;;;8.88;3.87;;;4.60;70.70;;;;;;2410414;56;21013;-81
2021/01/02 05:43:47;;;;;;;7.12;3.65;;;4.60;70.60;;;;;;2401651;56;21012;-82
2021/01/02 05:46:13;;;;;;;8.02;3.80;;;4.60;70.60;;;;;;2407606;56;20976;-82
2021/01/02 05:48:40;;;;;;;8.98;4.40;;;4.60;70.60;;;;;;2194770;56;20976;-80
2021/01/02 05:51:06;;;;;;;9.30;4.35;;;4.60;70.60;;;;;;2408433;57;20980;-82
2021/01/02 05:53:33;;;;;;;8.27;4.07;;;4.70;70.70;;;;;;2384816;57;21052;-80
2021/01/02 05:56:07;;;;;;;8.15;4.32;;;4.70;70.70;;;;;;2407558;56;20960;-80
2021/01/02 05:58:41;;;;;;;9.32;4.55;;;4.70;70.80;;;;;;2382249;57;20977;-84
2021/01/02 06:01:15;;;;;;;10.02;4.43;;;4.70;70.70;;;;;;2409098;56;20996;-83
2021/01/02 06:03:42;;;;;;;7.80;4.00;;;4.70;70.60;;;;;;2407199;56;21714;-82
2021/01/02 06:06:12;;;;;;;8.25;4.55;;;4.70;70.50;;;;;;2407690;56;20965;-81
2021/01/02 06:08:56;;;;;;;8.95;3.87;;;4.70;70.40;;;;;;2408209;56;20990;-83
2021/01/02 06:11:23;;;;;;;8.80;4.22;;;4.70;70.20;;;;;;2194022;56;21083;-82
2021/01/02 06:13:51;;;;;;;7.95;3.53;;;4.70;70.40;;;;;;2407554;57;21017;-82
2021/01/02 06:16:17;;;;;;;7.00;3.62;;;4.70;70.40;;;;;;2403692;56;20976;-81
2021/01/02 06:18:46;;;;;;;8.15;3.67;;;4.80;70.50;;;;;;2407021;57;20975;-82
2021/01/02 06:21:17;;;;;;;8.13;4.15;;;4.80;70.50;;;;;;2408516;56;21005;-80
2021/01/02 06:23:44;;;;;;;9.77;4.57;;;4.80;70.50;;;;;;2406229;57;21048;-80
2021/01/02 06:26:11;;;;;;;8.98;4.97;;;4.80;70.50;;;;;;2407203;56;20960;-83
2021/01/02 06:28:39;;;;;;;11.05;5.37;;;4.80;70.50;;;;;;2402986;56;21003;-82
2021/01/02 06:31:10;;;;;;;12.88;6.47;;;4.80;70.50;;;;;;2197512;56;21041;-80
2021/01/02 06:33:36;;;;;;;12.52;6.68;;;4.80;70.50;;;;;;2407794;57;20991;-82
2021/01/02 06:36:03;;;;;;;11.82;5.90;;;4.80;70.50;;;;;;2407399;57;21039;-82
2021/01/02 06:38:29;;;;;;;11.77;5.68;;;4.80;70.50;;;;;;2197552;56;20988;-82
2021/01/02 06:40:56;;;;;;;10.43;4.45;;;4.80;70.40;;;;;;2399321;56;21761;-82
2021/01/02 06:43:25;;;;;;;8.80;4.43;;;4.80;70.40;;;;;;2408576;56;20972;-83
2021/01/02 06:46:00;;;;;;;12.32;4.40;;;4.80;70.30;;;;;;2407974;56;20945;-83
2021/01/02 06:48:31;;;;;;;8.13;3.33;;;4.80;70.30;;;;;;2408464;56;21051;-82
2021/01/02 06:50:59;;;;;;;5.97;2.85;;;4.80;70.40;;;;;;2194317;56;20989;-81
2021/01/02 06:53:32;;;;;;;6.85;3.28;;;4.80;70.50;;;;;;2194691;57;20976;-82
2021/01/02 06:56:13;;;;;;;6.97;3.30;;;4.80;70.50;;;;;;2192788;57;21044;-82
2021/01/02 06:58:47;;;;;;;6.55;3.17;;;4.90;70.50;;;;;;2196059;57;20951;-81
2021/01/02 07:01:56;;;;;;;7.30;3.65;;;4.90;70.50;;;;;;2180012;57;21024;-82
2021/01/02 07:04:37;;;;;;;9.43;4.57;;;4.90;70.40;;;;;;2407614;57;20960;-80
2021/01/02 07:07:06;;;;;;;9.73;4.72;;;4.90;70.60;;;;;;2406438;56;21024;-81
2021/01/02 07:09:33;;;;;;;9.10;4.53;;;4.90;70.80;;;;;;2407975;56;21417;-81
2021/01/02 07:12:07;;;;;;;8.57;4.43;;;4.90;70.90;;;;;;2408207;56;20972;-81
2021/01/02 07:14:34;;;;;;;7.65;4.10;;;4.90;71.00;;;;;;2193519;57;21079;-84
2021/01/02 07:17:10;;;;;;;7.85;4.03;;;5.00;71.20;;;;;;2407260;57;20992;-83
2021/01/02 07:19:38;;;;;;;9.48;5.07;;;5.00;71.30;;;;;;2408146;57;21107;-82
2021/01/02 07:22:21;;;;;;;9.18;4.80;;;5.00;71.30;;;;;;2408359;56;22052;-84
2021/01/02 07:25:01;;;;;;;9.38;4.75;;;5.00;71.20;;;;;;2408129;56;20949;-81
2021/01/02 07:27:32;;;;;;;7.95;4.18;;;5.10;71.10;;;;;;2192629;56;21296;-83
2021/01/02 07:29:59;;;;;;;10.15;4.47;;;5.10;71.10;;;;;;2408411;56;20953;-83
2021/01/02 07:32:27;;;;;;;7.60;4.03;;;5.10;71.10;;;;;;2193567;56;21785;-80
2021/01/02 07:34:54;;;;;;;7.70;4.43;;;5.10;71.10;;;;;;2407831;56;20944;-81
2021/01/02 07:37:22;;;;;;;7.53;4.32;;;5.20;71.20;;;;;;2406799;56;21069;-81
2021/01/02 07:39:57;;;;;;;8.10;4.35;;;5.10;71.00;;;;;;2390397;56;21001;-82
2021/01/02 07:42:24;;;;;;;7.55;3.92;;;5.20;71.10;;;;;;2408145;56;20968;-82
2021/01/02 07:45:32;;;;;;;7.60;4.07;;;5.20;71.10;;;;;;2407869;57;21754;-81
2021/01/02 07:47:59;;;;;;;7.40;3.70;;;5.20;70.80;;;;;;2406970;57;21037;-82
2021/01/02 07:50:27;;;;;;;6.55;3.30;;;5.20;71.10;;;;;;2196818;57;20969;-80
2021/01/02 07:52:59;;;;;;;8.27;4.07;;;5.20;71.10;;;;;;2409415;56;20978;-82
2021/01/02 07:55:27;;;;;;;7.90;3.87;;;5.30;71.20;;;;;;2400108;56;20992;-82
2021/01/02 07:57:53;;;;;;;8.40;4.50;;;5.30;71.20;;;;;;2407917;57;21596;-82
2021/01/02 08:00:20;;;;;;;7.22;3.65;;;5.30;71.20;;;;;;2397287;56;21008;-80
2021/01/02 08:02:46;;;;;;;7.70;4.03;;;5.30;71.20;;;;;;2183823;57;20976;-82
2021/01/02 08:05:14;;;;;;;9.50;4.22;;;5.30;71.10;;;;;;2407706;56;21044;-81
2021/01/02 08:07:40;;;;;;;8.75;4.43;;;5.40;71.10;;;;;;2407500;57;20961;-83
2021/01/02 08:10:11;;;;;;;7.50;3.75;;;5.40;71.10;;;;;;2407704;57;21023;-82
2021/01/02 08:12:37;;;;;;;6.80;3.50;;;5.40;70.90;;;;;;2407750;57;20956;-84
2021/01/02 08:15:05;;;;;;;6.97;3.83;;;5.40;71.00;;;;;;2407081;57;20968;-84
2021/01/02 08:17:38;;;;;;;10.25;4.32;;;5.40;71.00;;;;;;2407767;56;21028;-83
2021/01/02 08:20:05;;;;;;;9.18;4.35;;;5.40;71.00;;;;;;2406853;57;20969;-82
2021/01/02 08:22:35;;;;;;;9.88;4.97;;;5.40;71.20;;;;;;2406984;56;21017;-83
2021/01/02 08:25:05;;;;;;;14.00;6.65;;;5.50;71.30;;;;;;2407575;57;21016;-80
2021/01/02 08:27:34;;;;;;;9.52;5.12;;;5.50;71.40;;;;;;2408887;56;20996;-81
2021/01/02 08:30:03;;;;;;;10.15;5.25;;;5.50;71.40;;;;;;2407519;56;20940;-83
2021/01/02 08:32:32;;;;;;;9.75;5.00;;;5.50;71.40;;;;;;2407918;56;20987;-81
2021/01/02 08:34:58;;;;;;;12.10;6.40;;;5.50;71.50;;;;;;2192757;56;20960;-83
2021/01/02 08:37:25;;;;;;;12.82;6.05;;;5.60;71.60;;;;;;2193111;57;20980;-81
2021/01/02 08:40:08;;;;;;;12.32;6.05;;;5.60;71.60;;;;;;2408462;57;21013;-81
2021/01/02 08:42:35;;;;;;;;;;;5.60;71.40;;;;;;2199589;57;20973;-83
2021/01/02 08:45:01;;;;;;;12.52;6.10;;;5.70;71.00;;;;;;2193231;56;20120;-83
2021/01/02 08:47:28;;;;;;;11.50;6.00;;;5.70;71.50;;;;;;2197814;56;20992;-81
2021/01/02 08:49:55;;;;;;;10.98;6.20;;;5.50;71.40;;;;;;2407085;57;20940;-81
2021/01/02 08:52:23;;;;;;;12.07;6.10;;;5.80;71.60;;;;;;2407724;57;21063;-82
2021/01/02 08:55:13;;;;;;;13.15;7.05;;;5.80;71.60;;;;;;2174963;57;21021;-83
2021/01/02 08:57:54;;;;;;;12.18;5.97;;;5.80;71.50;;;;;;2201148;56;20973;-80
2021/01/02 09:00:29;;;;;;;11.32;5.47;;;5.80;71.50;;;;;;2378471;57;21005;-82
2021/01/02 09:03:06;;;;;;;11.05;5.62;;;5.80;71.50;;;;;;2193567;57;21043;-84
2021/01/02 09:05:36;;;;;;;10.88;5.30;;;5.90;71.40;;;;;;2193266;57;21059;-81
2021/01/02 09:08:10;;;;;;;9.35;4.97;;;5.90;72.10;;;;;;2407764;56;20996;-82
2021/01/02 09:10:42;;;;;;;9.70;5.25;;;5.90;71.20;;;;;;2408988;56;21014;-85
2021/01/02 09:13:20;;;;;;;9.88;5.22;;;5.90;71.10;;;;;;2407744;56;21012;-82
2021/01/02 09:15:51;;;;;;;11.70;6.07;;;5.90;70.90;;;;;;2197075;56;21894;-85
2021/01/02 09:18:38;;;;;;;12.43;6.32;;;5.90;71.10;;;;;;2192472;57;21016;-81
2021/01/02 09:21:26;;;;;;;11.10;5.72;;;5.90;70.80;;;;;;2408489;56;21860;-81
2021/01/02 09:23:59;;;;;;;9.55;5.03;;;5.90;70.80;;;;;;2407505;57;21762;-81
2021/01/02 09:26:35;;;;;;;10.57;5.53;;;5.90;71.10;;;;;;2409635;56;21728;-81
2021/01/02 09:29:12;;;;;;;9.82;5.37;;;6.00;71.10;;;;;;2193008;57;21464;-81
2021/01/02 09:31:38;;;;;;;10.50;5.45;;;5.90;71.20;;;;;;2407760;57;21119;-82
2021/01/02 09:34:04;;;;;;;10.50;5.90;;;5.90;71.20;;;;;;2408109;56;20948;-81
2021/01/02 09:36:31;;;;;;;10.90;5.85;;;6.00;71.40;;;;;;2408664;56;21005;-82
2021/01/02 09:38:57;;;;;;;13.43;6.35;;;6.00;71.40;;;;;;2395404;56;20956;-84
2021/01/02 09:41:23;;;;;;;10.50;5.68;;;6.00;71.40;;;;;;2408993;57;20964;-80
2021/01/02 09:43:54;;;;;;;11.40;6.47;;;6.00;71.40;;;;;;2408308;56;21273;-83
2021/01/02 09:46:24;;;;;;;11.68;5.82;;;6.10;71.50;;;;;;2406933;56;20956;-82
2021/01/02 09:48:51;;;;;;;10.32;5.85;;;6.10;71.50;;;;;;2408094;56;20956;-83
2021/01/02 09:51:18;;;;;;;13.23;6.62;;;6.10;71.50;;;;;;2193847;56;21040;-84
2021/01/02 09:53:44;;;;;;;15.55;7.87;;;6.10;71.50;;;;;;2408045;56;20952;-81
2021/01/02 09:56:11;;;;;;;15.48;8.10;;;6.10;71.40;;;;;;2407585;56;21832;-83
2021/01/02 09:58:37;;;;;;;14.63;7.85;;;6.10;71.40;;;;;;2197313;56;21029;-81
2021/01/02 10:01:04;;;;;;;13.90;7.93;;;6.10;71.40;;;;;;2408104;56;20953;-81
2021/01/02 10:03:30;;;;;;;12.63;7.07;;;6.20;71.50;;;;;;2407932;56;21844;-81
2021/01/02 10:05:56;;;;;;;15.52;9.00;;;6.20;71.50;;;;;;2407292;57;21444;-81
2021/01/02 10:08:23;;;;;;;15.30;8.20;;;6.20;71.40;;;;;;2192921;56;20960;-81
2021/01/02 10:10:50;;;;;;;14.40;8.15;;;6.20;71.40;;;;;;2199230;56;21009;-81
2021/01/02 10:13:17;;;;;;;15.00;7.97;;;6.30;71.50;;;;;;2401481;56;20976;-81
2021/01/02 10:15:44;;;;;;;16.05;8.43;;;6.30;71.50;;;;;;2193384;57;21021;-80
2021/01/02 10:18:10;;;;;;;15.82;8.40;;;6.30;71.40;;;;;;2408334;56;21081;-83
2021/01/02 10:20:38;;;;;;;13.75;7.68;;;6.30;71.40;;;;;;2193617;57;21380;-83
2021/01/02 10:23:04;;;;;;;14.80;8.10;;;6.30;71.30;;;;;;2408911;56;21037;-82
2021/01/02 10:25:30;;;;;;;14.02;7.45;;;6.40;71.40;;;;;;2407911;57;20984;-81
2021/01/02 10:27:56;;;;;;;16.23;8.43;;;6.40;71.40;;;;;;2405924;56;21004;-81
2021/01/02 10:30:23;;;;;;;14.55;7.82;;;6.40;71.40;;;;;;2407735;56;21049;-83
2021/01/02 10:32:49;;;;;;;14.90;7.53;;;6.40;71.40;;;;;;2186297;56;20984;-82
2021/01/02 10:35:16;;;;;;;15.35;8.48;;;6.40;71.40;;;;;;2407597;57;20961;-83
2021/01/02 10:37:45;;;;;;;16.23;8.30;;;6.40;71.40;;;;;;2182395;56;20996;-81
2021/01/02 10:40:12;;;;;;;16.37;8.85;;;6.40;71.40;;;;;;2407484;57;20999;-82
2021/01/02 10:42:39;;;;;;;15.87;8.57;;;6.40;71.40;;;;;;2196291;57;1260719;-83
2021/01/02 10:45:09;;;;;;;15.13;7.87;;;6.40;71.40;;;;;;2407311;56;21077;-81
2021/01/02 10:47:35;;;;;;;15.00;8.32;;;6.50;71.40;;;;;;2198112;56;20993;-85
2021/01/02 10:50:02;;;;;;;17.37;8.98;;;6.50;71.40;;;;;;2408249;56;21509;-84
2021/01/02 10:52:28;;;;;;;20.15;10.40;;;6.50;71.40;;;;;;2193436;56;21032;-82
2021/01/02 10:54:55;;;;;;;16.87;8.73;;;6.50;71.40;;;;;;2407070;56;20984;-82
2021/01/02 10:57:24;;;;;;;17.12;9.27;;;6.50;71.30;;;;;;2407001;56;20968;-82
2021/01/02 10:59:51;;;;;;;14.87;7.78;;;6.50;71.20;;;;;;2407819;56;20972;-84
2021/01/02 11:02:18;;;;;;;14.32;7.75;;;6.50;71.20;;;;;;2409456;56;21021;-82
2021/01/02 11:04:44;;;;;;;16.75;7.95;;;6.50;71.20;;;;;;2409315;56;21078;-81
2021/01/02 11:07:11;;;;;;;14.57;7.55;;;6.50;71.10;;;;;;2401363;56;21069;-82
2021/01/02 11:09:37;;;;;;;15.40;8.52;;;6.50;71.20;;;;;;2400930;56;21031;-82
2021/01/02 11:12:04;;;;;;;15.20;8.43;;;6.60;71.30;;;;;;2405602;56;21099;-80
2021/01/02 11:14:30;;;;;;;15.63;7.80;;;6.60;71.40;;;;;;2401022;56;21086;-83
2021/01/02 11:16:56;;;;;;;15.75;8.48;;;6.60;71.50;;;;;;2410450;56;20977;-80
2021/01/02 11:19:27;;;;;;;15.50;8.23;;;6.60;71.50;;;;;;2400923;56;20992;-81
2021/01/02 11:21:57;;;;;;;16.73;8.45;;;6.60;71.40;;;;;;2407696;57;20976;-82
2021/01/02 11:24:24;;;;;;;17.05;8.90;;;6.60;71.50;;;;;;2194673;56;21049;-81
2021/01/02 11:26:52;;;;;;;17.85;8.25;;;6.60;71.50;;;;;;2407506;56;21005;-82
2021/01/02 11:29:19;;;;;;;16.08;8.35;;;6.70;71.60;;;;;;2410345;56;21903;-82
2021/01/02 11:31:46;;;;;;;15.85;8.30;;;6.70;71.40;;;;;;2396160;56;21021;-82
2021/01/02 11:34:18;;;;;;;18.92;9.10;;;6.70;71.40;;;;;;2407213;56;20950;-81
2021/01/02 11:36:50;;;;;;;17.23;8.70;;;6.70;71.40;;;;;;2408854;56;20962;-82
2021/01/02 11:39:17;;;;;;;16.60;8.60;;;6.70;71.40;;;;;;2397395;56;21026;-82
2021/01/02 11:41:44;;;;;;;20.05;9.82;;;6.70;71.50;;;;;;2407298;57;20976;-83
2021/01/02 11:44:11;;;;;;;17.45;9.40;;;6.80;71.50;;;;;;2196951;56;21032;-81
2021/01/02 11:46:39;;;;;;;16.17;8.23;;;6.80;71.50;;;;;;2407408;56;20941;-83
2021/01/02 11:49:06;;;;;;;18.08;9.70;;;6.80;71.50;;;;;;2197370;56;21069;-81
2021/01/02 11:51:32;;;;;;;19.70;9.43;;;6.90;71.60;;;;;;2408309;56;21025;-82
2021/01/02 11:53:59;;;;;;;16.70;8.07;;;6.80;71.50;;;;;;2189656;57;20961;-81
2021/01/02 11:56:26;;;;;;;16.50;8.77;;;6.80;71.50;;;;;;2390168;56;20967;-83
2021/01/02 11:58:53;;;;;;;19.60;9.48;;;6.80;71.50;;;;;;2408110;57;21013;-81
2021/01/02 12:01:20;;;;;;;16.80;9.00;;;6.80;71.60;;;;;;2398432;56;21960;-82
2021/01/02 12:03:47;;;;;;;16.85;8.63;;;6.90;71.70;;;;;;2383150;57;21338;-82
2021/01/02 12:06:13;;;;;;;20.30;9.40;;;6.90;71.60;;;;;;2195872;56;21002;-82
2021/01/02 12:08:39;;;;;;;16.62;8.95;;;6.90;71.50;;;;;;2396708;56;21003;-82
2021/01/02 12:11:09;;;;;;;18.17;9.07;;;6.90;71.40;;;;;;2405239;56;20992;-83
2021/01/02 12:13:41;;;;;;;17.27;9.07;;;6.90;71.30;;;;;;2407959;57;21499;-83
2021/01/02 12:16:08;;;;;;;18.65;9.45;;;6.90;71.20;;;;;;2196421;57;21111;-83
2021/01/02 12:18:35;;;;;;;16.50;8.65;;;6.90;71.20;;;;;;2193056;57;21011;-82
2021/01/02 12:21:01;;;;;;;15.68;8.82;;;6.90;71.30;;;;;;2408537;56;21211;-84
2021/01/02 12:23:28;;;;;;;16.90;8.77;;;7.00;71.50;;;;;;2406978;56;21044;-83
2021/01/02 12:25:55;;;;;;;15.57;8.27;;;7.00;71.40;;;;;;2406232;56;20964;-82
2021/01/02 12:28:27;;;;;;;17.00;9.07;;;7.00;71.40;;;;;;2402674;56;20984;-80
2021/01/02 12:30:54;;;;;;;15.90;8.63;;;7.00;71.20;;;;;;2391345;56;21021;-85
2021/01/02 12:33:20;;;;;;;15.95;8.07;;;7.00;71.20;;;;;;2193694;56;21071;-84
2021/01/02 12:35:50;;;;;;;16.52;8.98;;;7.00;71.10;;;;;;2197835;56;21485;-83
2021/01/02 12:38:17;;;;;;;16.73;8.43;;;7.00;71.10;;;;;;2407209;56;21022;-82
2021/01/02 12:40:43;;;;;;;16.17;8.48;;;7.00;71.10;;;;;;2398360;56;21073;-83
2021/01/02 12:43:09;;;;;;;15.57;9.00;;;7.00;71.00;;;;;;2391698;56;20944;-83
2021/01/02 12:45:38;;;;;;;16.75;8.05;;;7.00;70.90;;;;;;2405143;56;21001;-81
2021/01/02 12:48:05;;;;;;;15.02;8.68;;;7.00;70.80;;;;;;2187097;56;21588;-82
2021/01/02 12:50:32;;;;;;;15.88;7.87;;;7.00;70.90;;;;;;2403792;56;21005;-81
2021/01/02 12:52:58;;;;;;;15.70;8.43;;;7.00;70.80;;;;;;2401068;56;20989;-83
2021/01/02 12:55:25;;;;;;;15.00;7.97;;;7.00;70.80;;;;;;2194469;57;21001;-81
2021/01/02 12:57:55;;;;;;;14.60;8.00;;;7.00;70.60;;;;;;2402288;56;21211;-81
2021/01/02 13:00:22;;;;;;;15.80;8.27;;;7.00;70.70;;;;;;2395306;56;20981;-81
2021/01/02 13:02:58;;;;;;;16.90;8.55;;;7.00;70.70;;;;;;2187805;57;21894;-82
2021/01/02 13:05:25;;;;;;;15.90;8.13;;;7.00;70.50;;;;;;2401908;56;21122;-82
2021/01/02 13:07:52;;;;;;;16.50;9.30;;;7.00;70.70;;;;;;2394606;56;20985;-82
2021/01/02 13:10:22;;;;;;;17.58;9.38;;;6.90;70.60;;;;;;2408130;56;21016;-80
2021/01/02 13:12:48;;;;;;;16.65;9.55;;;6.70;70.40;;;;;;2182618;57;21005;-81
2021/01/02 13:15:15;;;;;;;17.83;9.48;;;6.90;70.60;;;;;;2386859;57;21002;-81
2021/01/02 13:17:42;;;;;;;16.73;8.85;;;7.00;70.70;;;;;;2402843;57;21116;-82
2021/01/02 13:20:09;;;;;;;16.35;9.38;;;7.10;70.80;;;;;;2396576;57;21104;-82
2021/01/02 13:22:36;;;;;;;17.12;9.60;;;6.90;70.70;;;;;;2189641;56;21089;-83
2021/01/02 13:25:02;;;;;;;17.12;9.02;;;6.90;70.60;;;;;;2391230;56;21064;-84
2021/01/02 13:27:29;;;;;;;21.20;10.02;;;6.90;70.60;;;;;;2190150;57;21014;-82
2021/01/02 13:29:55;;;;;;;17.50;9.43;;;6.90;70.60;;;;;;2393983;56;21025;-83